Time;durP1;ratioP1;P1;durP2;ratioP2;P2;SDS_P1;SDS_P2;PMS_P1;PMS_P2;Temp;Humidity;BMP_temperature;BMP_pressure;BME280_temperature;BME280_humidity;BME280_pressure;Samples;Min_cycle;Max_cycle;Signal;HPM_P1;HPM_P2
2020/12/15 00:00:37;;;;;;;6.33;5.30;;;10.60;99.90;;;;;;5105011;28;20572;-83
2020/12/15 00:03:03;;;;;;;6.97;5.27;;;10.70;99.90;;;;;;5072833;28;20674;-84
2020/12/15 00:05:28;;;;;;;8.30;5.90;;;10.70;99.90;;;;;;5115162;28;20536;-83
2020/12/15 00:07:54;;;;;;;6.87;5.03;;;10.60;99.90;;;;;;5115467;28;20670;-83
2020/12/15 00:10:20;;;;;;;7.07;5.93;;;10.60;99.90;;;;;;5114653;28;20185;-84
2020/12/15 00:12:46;;;;;;;6.47;5.37;;;10.70;99.90;;;;;;5115921;28;20181;-83
2020/12/15 00:15:11;;;;;;;6.90;5.73;;;10.70;99.90;;;;;;5114970;28;20260;-83
2020/12/15 00:17:37;;;;;;;6.87;6.13;;;10.60;99.90;;;;;;5115818;28;20312;-84
2020/12/15 00:20:07;;;;;;;8.33;5.63;;;10.70;99.90;;;;;;5114621;28;20280;-83
2020/12/15 00:22:36;;;;;;;7.87;6.40;;;10.60;99.90;;;;;;5115170;28;20644;-83
2020/12/15 00:25:03;;;;;;;9.77;6.00;;;10.70;99.90;;;;;;5115779;28;20205;-83
2020/12/15 00:27:29;;;;;;;9.40;5.80;;;10.70;99.90;;;;;;5115698;28;20199;-83
2020/12/15 00:29:55;;;;;;;8.67;6.70;;;10.60;99.90;;;;;;5097544;28;20178;-83
2020/12/15 00:32:20;;;;;;;6.83;6.10;;;10.70;99.90;;;;;;5114629;28;20272;-83
2020/12/15 00:34:46;;;;;;;6.37;5.73;;;10.60;99.90;;;;;;5115324;28;20181;-83
2020/12/15 00:37:12;;;;;;;11.17;6.20;;;10.70;99.90;;;;;;5096243;28;20276;-83
2020/12/15 00:39:37;;;;;;;7.07;5.57;;;10.70;99.90;;;;;;5113918;28;20292;-83
2020/12/15 00:42:04;;;;;;;6.70;5.97;;;10.60;99.90;;;;;;5097288;28;20185;-83
2020/12/15 00:44:30;;;;;;;7.83;6.43;;;10.60;99.90;;;;;;5114355;28;20630;-83
2020/12/15 00:46:55;;;;;;;7.43;6.10;;;10.60;99.90;;;;;;5113996;28;20219;-83
2020/12/15 00:49:21;;;;;;;7.90;5.80;;;10.70;99.90;;;;;;5111317;28;20174;-84
2020/12/15 00:51:48;;;;;;;9.47;6.20;;;10.60;99.90;;;;;;5114481;28;20174;-83
2020/12/15 00:54:14;;;;;;;8.97;6.00;;;10.60;99.90;;;;;;5114106;28;20253;-83
2020/12/15 00:56:41;;;;;;;8.77;5.90;;;10.50;99.90;;;;;;5114081;28;20212;-83
2020/12/15 00:59:06;;;;;;;11.30;6.37;;;10.60;99.90;;;;;;5094115;28;20243;-83
2020/12/15 01:01:32;;;;;;;8.20;6.07;;;10.70;99.90;;;;;;5113954;28;20285;-83
2020/12/15 01:03:58;;;;;;;8.83;6.50;;;10.60;99.90;;;;;;5097035;28;20448;-83
2020/12/15 01:06:23;;;;;;;8.60;6.70;;;10.60;99.90;;;;;;5114485;28;20730;-83
2020/12/15 01:08:49;;;;;;;10.27;6.07;;;10.70;99.90;;;;;;5096759;28;20180;-83
2020/12/15 01:11:16;;;;;;;6.97;5.60;;;10.70;99.90;;;;;;5114674;28;20295;-83
2020/12/15 01:13:42;;;;;;;10.20;6.53;;;10.70;99.90;;;;;;5113895;28;20181;-83
2020/12/15 01:16:08;;;;;;;9.97;6.37;;;10.80;99.90;;;;;;5113893;28;20184;-83
2020/12/15 01:18:35;;;;;;;8.30;5.80;;;10.70;99.90;;;;;;5113378;28;20325;-83
2020/12/15 01:21:04;;;;;;;7.07;6.13;;;10.70;99.90;;;;;;5093168;28;20277;-83
2020/12/15 01:23:30;;;;;;;9.97;5.80;;;10.70;99.90;;;;;;5077529;28;20198;-83
2020/12/15 01:25:55;;;;;;;7.87;5.73;;;10.80;99.90;;;;;;5113340;28;20209;-83
2020/12/15 01:28:21;;;;;;;9.03;5.97;;;10.70;99.90;;;;;;5113299;28;20188;-83
2020/12/15 01:30:47;;;;;;;10.60;6.30;;;10.70;99.90;;;;;;5114097;28;20592;-83
2020/12/15 01:33:12;;;;;;;7.87;6.47;;;10.60;99.90;;;;;;5096172;28;20180;-83
2020/12/15 01:35:38;;;;;;;9.93;6.17;;;10.70;99.90;;;;;;5114319;28;20273;-83
2020/12/15 01:38:04;;;;;;;6.80;5.90;;;10.70;99.90;;;;;;5096575;28;20721;-83
2020/12/15 01:40:29;;;;;;;8.00;6.10;;;10.90;99.90;;;;;;5114561;28;20194;-83
2020/12/15 01:42:55;;;;;;;7.10;5.90;;;11.00;99.90;;;;;;5113387;28;20182;-83
2020/12/15 01:45:22;;;;;;;7.13;6.27;;;10.80;99.90;;;;;;5114260;28;20234;-83
2020/12/15 01:47:48;;;;;;;6.70;5.60;;;10.80;99.90;;;;;;5096191;28;20573;-83
2020/12/15 01:50:14;;;;;;;5.80;5.10;;;10.80;99.90;;;;;;5114464;28;20206;-83
2020/12/15 01:52:40;;;;;;;6.43;5.33;;;10.80;99.90;;;;;;5092616;28;20643;-83
2020/12/15 01:55:07;;;;;;;7.90;6.07;;;10.80;99.90;;;;;;5103460;28;20177;-83
2020/12/15 01:57:32;;;;;;;7.70;5.87;;;10.80;99.90;;;;;;5112688;28;20174;-83
2020/12/15 01:59:58;;;;;;;8.20;5.90;;;10.70;99.90;;;;;;5077655;28;20197;-83
2020/12/15 02:02:24;;;;;;;6.03;5.43;;;10.60;99.90;;;;;;5095929;28;20174;-83
2020/12/15 02:04:50;;;;;;;8.33;6.10;;;10.70;99.90;;;;;;5113749;28;20174;-83
2020/12/15 02:07:17;;;;;;;6.80;5.90;;;10.80;99.90;;;;;;5112569;28;20198;-83
2020/12/15 02:09:43;;;;;;;8.40;5.90;;;10.80;99.90;;;;;;5112753;28;20185;-83
2020/12/15 02:12:11;;;;;;;6.43;5.83;;;10.60;99.90;;;;;;5112669;28;20185;-83
2020/12/15 02:14:37;;;;;;;7.80;6.00;;;10.70;99.90;;;;;;5112059;28;20646;-83
2020/12/15 02:17:03;;;;;;;6.90;5.57;;;10.70;99.90;;;;;;5105025;28;20216;-83
2020/12/15 02:19:28;;;;;;;7.97;5.83;;;10.70;99.90;;;;;;5107703;28;20270;-83
2020/12/15 02:22:00;;;;;;;8.43;5.60;;;10.80;99.90;;;;;;5100562;28;20570;-83
2020/12/15 02:24:27;;;;;;;6.97;5.63;;;10.80;99.90;;;;;;5108234;28;20265;-83
2020/12/15 02:26:54;;;;;;;6.97;6.10;;;10.80;99.90;;;;;;5097660;28;20174;-83
2020/12/15 02:29:19;;;;;;;7.27;5.50;;;10.60;99.90;;;;;;5113376;28;20220;-83
2020/12/15 02:31:45;;;;;;;7.57;5.63;;;10.70;99.90;;;;;;5095348;28;20231;-82
2020/12/15 02:34:11;;;;;;;8.77;5.90;;;10.60;99.90;;;;;;5113618;28;20166;-83
2020/12/15 02:36:37;;;;;;;7.30;5.67;;;10.70;99.90;;;;;;5111440;28;20173;-83
2020/12/15 02:39:13;;;;;;;6.93;5.70;;;10.80;99.90;;;;;;5113822;28;20208;-83
2020/12/15 02:41:39;;;;;;;8.73;5.77;;;10.80;99.90;;;;;;5102048;28;20182;-82
2020/12/15 02:44:07;;;;;;;7.20;5.80;;;10.80;99.90;;;;;;5090883;28;20666;-82
2020/12/15 02:46:33;;;;;;;8.73;6.37;;;10.80;99.90;;;;;;5097881;28;20634;-83
2020/12/15 02:48:59;;;;;;;6.50;5.90;;;10.90;99.90;;;;;;5100361;28;20247;-83
2020/12/15 02:51:26;;;;;;;11.03;5.97;;;10.90;99.90;;;;;;5109243;28;20272;-83
2020/12/15 02:53:52;;;;;;;6.70;5.77;;;10.90;99.90;;;;;;5108141;28;20182;-84
2020/12/15 02:56:20;;;;;;;8.17;6.30;;;10.80;99.90;;;;;;5108869;28;20707;-82
2020/12/15 02:58:46;;;;;;;7.43;6.10;;;10.80;99.90;;;;;;5111568;28;20194;-82
2020/12/15 03:01:12;;;;;;;7.67;6.27;;;10.90;99.90;;;;;;5111591;28;20662;-84
2020/12/15 03:03:37;;;;;;;6.80;6.20;;;10.90;99.90;;;;;;5109460;28;20190;-83
2020/12/15 03:06:03;;;;;;;8.13;6.63;;;10.90;99.90;;;;;;5080379;28;20545;-83
2020/12/15 03:08:29;;;;;;;9.07;6.57;;;10.90;99.90;;;;;;5102349;28;20193;-83
2020/12/15 03:10:54;;;;;;;8.80;6.90;;;10.80;99.90;;;;;;5094360;28;20186;-83
2020/12/15 03:13:20;;;;;;;8.90;6.37;;;10.90;99.90;;;;;;5104605;28;20194;-83
2020/12/15 03:15:46;;;;;;;8.20;7.00;;;10.70;99.90;;;;;;5099129;28;20634;-82
2020/12/15 03:18:11;;;;;;;10.80;7.43;;;10.70;99.90;;;;;;5108413;28;20699;-82
2020/12/15 03:20:37;;;;;;;9.27;7.03;;;10.70;99.90;;;;;;5090710;28;20206;-83
2020/12/15 03:23:02;;;;;;;13.47;7.23;;;10.80;99.90;;;;;;5116611;28;20177;-83
2020/12/15 03:25:28;;;;;;;7.87;6.97;;;10.90;99.90;;;;;;5115789;28;20220;-83
2020/12/15 03:27:54;;;;;;;11.27;7.23;;;10.90;99.90;;;;;;5095545;28;20190;-82
2020/12/15 03:30:19;;;;;;;8.83;7.23;;;10.90;99.90;;;;;;5114871;28;20634;-82
2020/12/15 03:32:45;;;;;;;9.77;7.30;;;10.90;99.90;;;;;;5081850;28;20197;-82
2020/12/15 03:35:10;;;;;;;10.10;7.87;;;10.80;99.90;;;;;;5097437;28;20200;-83
2020/12/15 03:37:36;;;;;;;7.83;7.03;;;10.80;99.90;;;;;;5116638;28;20186;-82
2020/12/15 03:40:03;;;;;;;9.13;7.77;;;10.80;99.90;;;;;;5116269;28;20198;-82
2020/12/15 03:42:28;;;;;;;8.87;7.90;;;10.90;99.90;;;;;;5115157;28;20186;-83
2020/12/15 03:44:54;;;;;;;8.40;7.60;;;10.90;99.90;;;;;;5094506;28;20185;-82
2020/12/15 03:47:20;;;;;;;9.30;8.20;;;11.00;99.90;;;;;;5105242;28;20185;-82
2020/12/15 03:49:45;;;;;;;9.87;8.00;;;11.00;99.90;;;;;;5116838;28;20185;-82
2020/12/15 03:52:11;;;;;;;10.70;8.50;;;10.80;99.90;;;;;;5116468;28;20184;-82
2020/12/15 03:54:37;;;;;;;12.30;8.60;;;10.80;99.90;;;;;;5098313;28;20208;-83
2020/12/15 03:57:02;;;;;;;9.73;8.37;;;10.70;99.90;;;;;;5114832;28;20551;-83
2020/12/15 03:59:28;;;;;;;9.53;8.57;;;10.70;99.90;;;;;;5114814;28;20190;-82
2020/12/15 04:01:53;;;;;;;10.37;7.93;;;10.60;99.90;;;;;;5115153;28;20622;-82
2020/12/15 04:04:19;;;;;;;13.43;8.80;;;10.70;99.90;;;;;;5081496;28;20236;-82
2020/12/15 04:06:45;;;;;;;11.13;8.50;;;10.70;99.90;;;;;;5114295;28;20278;-82
2020/12/15 04:09:10;;;;;;;9.30;8.30;;;10.60;99.90;;;;;;5116660;28;20242;-82
2020/12/15 04:11:36;;;;;;;10.47;8.63;;;10.70;99.90;;;;;;5097825;28;20190;-82
2020/12/15 04:14:02;;;;;;;12.67;8.70;;;10.60;99.90;;;;;;5097903;28;20238;-82
2020/12/15 04:16:27;;;;;;;10.83;8.77;;;10.70;99.90;;;;;;5097737;28;20178;-82
2020/12/15 04:18:53;;;;;;;11.10;8.70;;;10.70;99.90;;;;;;5098210;28;20672;-82
2020/12/15 04:21:19;;;;;;;9.23;8.03;;;10.70;99.90;;;;;;5097441;28;20285;-82
2020/12/15 04:23:44;;;;;;;12.30;8.60;;;10.60;99.90;;;;;;5115687;28;20635;-82
2020/12/15 04:26:10;;;;;;;8.83;7.70;;;10.60;99.90;;;;;;5114716;28;20597;-82
2020/12/15 04:28:35;;;;;;;11.33;7.77;;;10.60;99.90;;;;;;5097435;28;20223;-82
2020/12/15 04:31:01;;;;;;;10.53;8.20;;;10.60;99.90;;;;;;5097817;28;20190;-82
2020/12/15 04:33:27;;;;;;;10.80;7.90;;;10.60;99.90;;;;;;5114931;28;20205;-82
2020/12/15 04:35:53;;;;;;;9.50;7.90;;;10.60;99.90;;;;;;5097532;28;20177;-83
2020/12/15 04:38:19;;;;;;;10.20;7.47;;;10.70;99.90;;;;;;5115576;28;20582;-82
2020/12/15 04:40:44;;;;;;;10.40;8.30;;;10.70;99.90;;;;;;5096990;28;20217;-82
2020/12/15 04:43:11;;;;;;;9.60;8.20;;;10.60;99.90;;;;;;5114151;28;20181;-84
2020/12/15 04:45:37;;;;;;;9.80;7.97;;;10.70;99.90;;;;;;5097610;28;20182;-82
2020/12/15 04:48:08;;;;;;;9.40;7.80;;;10.70;99.90;;;;;;5113915;28;20260;-82
2020/12/15 04:50:38;;;;;;;10.20;8.00;;;10.60;99.90;;;;;;5115373;28;20177;-83
2020/12/15 04:53:13;;;;;;;8.37;7.50;;;10.60;99.90;;;;;;5116205;28;20191;-83
2020/12/15 04:55:40;;;;;;;12.30;8.37;;;10.60;99.90;;;;;;5077099;28;20190;-82
2020/12/15 04:58:07;;;;;;;8.90;7.47;;;10.60;99.90;;;;;;5104710;28;20185;-82
2020/12/15 05:00:34;;;;;;;8.63;7.73;;;10.70;99.90;;;;;;5114118;28;20208;-83
2020/12/15 05:03:02;;;;;;;11.63;7.63;;;10.70;99.90;;;;;;5115201;28;20224;-82
2020/12/15 05:05:29;;;;;;;11.13;7.77;;;10.60;99.90;;;;;;5114138;28;20209;-82
2020/12/15 05:08:00;;;;;;;9.57;8.57;;;10.70;99.90;;;;;;5113747;28;20289;-82
2020/12/15 05:10:26;;;;;;;8.57;7.63;;;10.70;99.90;;;;;;5113763;28;20216;-83
2020/12/15 05:12:52;;;;;;;9.83;7.37;;;10.70;99.90;;;;;;5114296;28;20222;-83
2020/12/15 05:15:18;;;;;;;8.20;7.40;;;10.70;99.90;;;;;;5113899;28;20688;-82
2020/12/15 05:17:45;;;;;;;9.37;7.83;;;10.70;99.90;;;;;;5079839;28;20633;-82
2020/12/15 05:20:26;;;;;;;11.03;7.87;;;10.60;99.90;;;;;;5114943;28;20301;-83
2020/12/15 05:22:51;;;;;;;8.83;7.63;;;10.60;99.90;;;;;;5114699;28;20153;-83
2020/12/15 05:25:31;;;;;;;9.90;8.40;;;10.70;99.90;;;;;;5096311;28;20178;-82
2020/12/15 05:28:00;;;;;;;8.63;7.57;;;10.70;99.90;;;;;;5114103;28;20189;-83
2020/12/15 05:30:29;;;;;;;8.47;7.60;;;10.60;99.90;;;;;;5113507;28;20181;-82
2020/12/15 05:32:59;;;;;;;10.00;7.20;;;10.60;99.90;;;;;;5113359;28;20178;-82
2020/12/15 05:35:30;;;;;;;10.50;7.47;;;10.60;99.90;;;;;;5113414;28;20523;-82
2020/12/15 05:37:58;;;;;;;8.07;6.10;;;10.60;99.90;;;;;;5114741;28;20218;-83
2020/12/15 05:40:24;;;;;;;8.20;6.47;;;10.50;99.90;;;;;;5113114;28;20194;-83
2020/12/15 05:42:55;;;;;;;8.70;6.70;;;10.60;99.90;;;;;;5113108;28;20239;-83
2020/12/15 05:45:22;;;;;;;8.67;6.20;;;10.70;99.90;;;;;;5112565;28;20180;-83
2020/12/15 05:47:49;;;;;;;9.10;6.27;;;10.70;99.90;;;;;;5113044;28;20186;-83
2020/12/15 05:50:22;;;;;;;7.57;6.57;;;10.70;99.90;;;;;;5114085;28;20181;-83
2020/12/15 05:53:02;;;;;;;8.03;5.67;;;10.70;99.90;;;;;;5112715;28;20178;-83
2020/12/15 05:55:28;;;;;;;8.60;6.03;;;10.80;99.90;;;;;;5093879;28;20188;-83
2020/12/15 05:57:55;;;;;;;7.47;5.80;;;10.90;99.90;;;;;;5088000;28;20183;-83
2020/12/15 06:00:21;;;;;;;5.47;4.97;;;10.80;99.90;;;;;;5103149;28;20201;-83
2020/12/15 06:03:00;;;;;;;8.23;5.20;;;10.70;99.90;;;;;;5107149;28;20182;-83
2020/12/15 06:05:28;;;;;;;5.20;4.70;;;10.60;99.90;;;;;;5091700;28;20178;-83
2020/12/15 06:07:55;;;;;;;6.73;4.70;;;10.70;99.90;;;;;;5092518;28;20258;-82
2020/12/15 06:10:22;;;;;;;4.73;4.23;;;10.60;99.90;;;;;;5087741;28;20589;-83
2020/12/15 06:12:52;;;;;;;4.87;4.37;;;10.60;99.90;;;;;;5095464;28;20239;-83
2020/12/15 06:15:18;;;;;;;6.97;4.47;;;10.50;99.90;;;;;;5092589;28;20547;-83
2020/12/15 06:17:56;;;;;;;6.80;4.20;;;10.60;99.90;;;;;;5112048;28;20272;-83
2020/12/15 06:20:22;;;;;;;5.77;4.60;;;10.70;99.90;;;;;;5112229;28;20205;-83
2020/12/15 06:22:52;;;;;;;4.83;4.30;;;10.70;99.90;;;;;;5112180;28;20185;-83
2020/12/15 06:25:31;;;;;;;8.23;4.47;;;10.80;99.90;;;;;;5095112;28;20180;-83
2020/12/15 06:28:06;;;;;;;5.43;4.83;;;10.90;99.90;;;;;;5102275;28;20196;-83
2020/12/15 06:30:37;;;;;;;5.97;4.67;;;10.90;99.90;;;;;;5113252;28;20208;-83
2020/12/15 06:33:09;;;;;;;8.03;4.93;;;11.00;99.90;;;;;;5112982;28;20170;-83
2020/12/15 06:35:35;;;;;;;5.77;4.77;;;10.80;99.90;;;;;;5113649;28;20257;-83
2020/12/15 06:38:04;;;;;;;5.83;4.90;;;10.60;99.90;;;;;;5113472;28;20222;-83
2020/12/15 06:40:40;;;;;;;7.27;5.00;;;10.60;99.90;;;;;;5112599;28;20615;-83
2020/12/15 06:43:06;;;;;;;6.50;5.17;;;10.70;99.90;;;;;;5097320;28;20227;-83
2020/12/15 06:45:31;;;;;;;9.07;5.77;;;10.80;99.90;;;;;;5096761;28;20177;-83
2020/12/15 06:48:05;;;;;;;5.93;5.33;;;10.80;99.90;;;;;;5111490;28;20210;-83
2020/12/15 06:50:45;;;;;;;7.90;5.87;;;10.70;99.90;;;;;;5106928;28;20220;-83
2020/12/15 06:53:15;;;;;;;8.80;5.80;;;10.60;99.90;;;;;;5113255;28;20182;-82
2020/12/15 06:55:43;;;;;;;10.13;5.90;;;10.50;99.90;;;;;;5112056;28;20177;-82
2020/12/15 06:58:08;;;;;;;8.17;6.07;;;10.50;99.90;;;;;;5112856;28;20196;-83
2020/12/15 07:00:36;;;;;;;7.60;5.83;;;10.50;99.90;;;;;;5111948;28;20205;-83
2020/12/15 07:03:03;;;;;;;7.70;5.27;;;10.60;99.90;;;;;;5111763;28;20260;-83
2020/12/15 07:05:29;;;;;;;7.57;4.90;;;10.50;99.90;;;;;;5111752;28;20696;-82
2020/12/15 07:08:00;;;;;;;7.17;4.80;;;10.60;99.90;;;;;;5101712;28;20666;-83
2020/12/15 07:10:27;;;;;;;7.77;4.67;;;10.50;99.90;;;;;;5101778;28;20190;-83
2020/12/15 07:12:53;;;;;;;5.33;4.40;;;10.50;99.90;;;;;;5103986;28;20189;-83
2020/12/15 07:15:20;;;;;;;5.97;4.33;;;10.50;99.90;;;;;;5089632;28;20334;-83
2020/12/15 07:17:47;;;;;;;5.40;4.63;;;10.60;99.90;;;;;;5098629;28;20193;-82
2020/12/15 07:20:14;;;;;;;6.53;4.10;;;10.70;99.90;;;;;;5104154;28;20232;-82
2020/12/15 07:22:40;;;;;;;5.53;4.67;;;10.80;99.90;;;;;;5094688;28;20181;-83
2020/12/15 07:25:07;;;;;;;5.67;4.73;;;10.60;99.90;;;;;;5085997;28;20542;-82
2020/12/15 07:27:34;;;;;;;5.37;4.87;;;10.70;99.90;;;;;;5096530;28;20557;-83
2020/12/15 07:30:00;;;;;;;6.77;5.43;;;10.70;99.90;;;;;;5104882;28;20188;-82
2020/12/15 07:32:27;;;;;;;6.10;4.97;;;10.60;99.90;;;;;;5100142;28;20182;-82
2020/12/15 07:35:00;;;;;;;5.73;5.13;;;10.60;99.90;;;;;;5108873;28;20272;-82
2020/12/15 07:37:27;;;;;;;8.33;5.87;;;10.60;99.90;;;;;;5105499;28;20186;-83
2020/12/15 07:39:55;;;;;;;7.83;5.90;;;10.50;99.90;;;;;;5097816;28;20210;-83
2020/12/15 07:42:21;;;;;;;7.30;5.80;;;10.50;99.90;;;;;;5101819;28;20648;-82
2020/12/15 07:44:54;;;;;;;6.60;5.87;;;10.50;99.90;;;;;;5087717;28;20187;-82
2020/12/15 07:47:20;;;;;;;8.23;5.50;;;10.60;99.90;;;;;;5101339;28;20185;-83
2020/12/15 07:49:52;;;;;;;7.07;6.07;;;10.60;99.90;;;;;;5097909;28;20194;-83
2020/12/15 07:52:28;;;;;;;6.80;6.10;;;10.60;99.90;;;;;;5098531;28;20186;-83
2020/12/15 07:55:03;;;;;;;7.20;6.30;;;10.60;99.90;;;;;;5093359;28;20193;-83
2020/12/15 07:57:32;;;;;;;8.03;5.60;;;10.70;99.90;;;;;;5101249;28;20240;-82
2020/12/15 08:00:09;;;;;;;6.60;5.60;;;10.50;99.90;;;;;;5105173;28;20201;-83
2020/12/15 08:02:36;;;;;;;6.53;5.60;;;10.70;99.90;;;;;;5104721;28;20226;-83
2020/12/15 08:05:12;;;;;;;6.53;5.30;;;10.80;99.90;;;;;;5069386;28;20240;-83
2020/12/15 08:07:46;;;;;;;10.07;6.67;;;10.70;99.90;;;;;;5047726;28;20210;-83
2020/12/15 08:10:16;;;;;;;8.33;5.97;;;10.80;99.90;;;;;;5072586;28;20193;-83
2020/12/15 08:12:42;;;;;;;8.13;6.23;;;10.90;99.90;;;;;;5101698;28;20173;-83
2020/12/15 08:15:10;;;;;;;9.57;6.50;;;10.90;99.90;;;;;;5107835;28;20191;-82
2020/12/15 08:17:39;;;;;;;8.83;7.60;;;11.00;99.90;;;;;;5104457;28;20185;-82
2020/12/15 08:20:07;;;;;;;11.63;7.03;;;11.00;99.90;;;;;;5103390;28;20202;-83
2020/12/15 08:22:40;;;;;;;8.83;7.63;;;11.10;99.90;;;;;;5113719;28;20630;-83
2020/12/15 08:25:11;;;;;;;10.27;8.50;;;11.00;99.90;;;;;;5096785;28;20213;-83
2020/12/15 08:27:37;;;;;;;11.60;8.97;;;10.90;99.90;;;;;;5107741;28;20193;-83
2020/12/15 08:30:17;;;;;;;13.23;9.03;;;10.90;99.90;;;;;;5103022;28;20654;-82
2020/12/15 08:32:50;;;;;;;11.57;8.87;;;11.00;99.90;;;;;;5095223;28;20236;-81
2020/12/15 08:35:26;;;;;;;12.17;9.37;;;11.00;99.90;;;;;;5106200;28;20181;-80
2020/12/15 08:37:58;;;;;;;10.37;9.03;;;11.10;99.90;;;;;;5094019;28;20189;-81
2020/12/15 08:40:26;;;;;;;11.97;10.00;;;11.20;99.90;;;;;;5098294;28;20241;-81
2020/12/15 08:43:01;;;;;;;12.00;9.60;;;11.20;99.90;;;;;;5111117;28;20597;-81
2020/12/15 08:45:27;;;;;;;11.73;9.53;;;11.00;99.90;;;;;;5112796;28;20215;-81
2020/12/15 08:47:58;;;;;;;12.73;10.43;;;11.10;99.90;;;;;;5099098;28;20182;-81
2020/12/15 08:50:29;;;;;;;11.63;10.33;;;11.10;99.90;;;;;;5109695;28;20703;-81
2020/12/15 08:53:08;;;;;;;11.07;9.97;;;11.10;99.90;;;;;;5109885;28;20220;-81
2020/12/15 08:55:35;;;;;;;11.87;10.30;;;11.20;99.90;;;;;;5091354;28;20189;-81
2020/12/15 08:58:03;;;;;;;13.10;10.63;;;11.20;99.90;;;;;;5104258;28;20278;-81
2020/12/15 09:00:33;;;;;;;13.03;10.93;;;11.20;99.90;;;;;;5101768;28;20678;-80
2020/12/15 09:03:14;;;;;;;12.93;10.70;;;11.30;99.90;;;;;;5107870;28;20185;-81
2020/12/15 09:05:56;;;;;;;15.90;10.97;;;11.30;99.90;;;;;;5107990;28;20265;-81
2020/12/15 09:08:26;;;;;;;12.40;11.10;;;11.10;99.90;;;;;;5102940;28;20192;-81
2020/12/15 09:10:55;;;;;;;12.87;11.57;;;11.20;99.90;;;;;;5101737;28;20174;-81
2020/12/15 09:13:21;;;;;;;16.70;12.50;;;11.30;99.90;;;;;;5112573;28;20213;-81
2020/12/15 09:15:55;;;;;;;13.67;12.13;;;11.30;99.90;;;;;;5100441;28;20240;-81
2020/12/15 09:18:32;;;;;;;12.70;11.40;;;11.20;99.90;;;;;;5111161;28;20182;-81
2020/12/15 09:21:12;;;;;;;15.33;13.40;;;11.20;99.90;;;;;;5094116;28;20546;-81
2020/12/15 09:23:38;;;;;;;14.73;13.23;;;11.30;99.90;;;;;;5098520;28;20189;-81
2020/12/15 09:26:04;;;;;;;15.37;12.90;;;11.20;99.90;;;;;;5105210;28;20202;-80
2020/12/15 09:28:29;;;;;;;16.77;13.13;;;11.30;99.90;;;;;;5085858;28;20285;-81
2020/12/15 09:30:55;;;;;;;17.93;14.90;;;11.40;99.90;;;;;;5110749;28;20284;-80
2020/12/15 09:33:21;;;;;;;15.83;13.83;;;11.30;99.90;;;;;;5112966;28;20182;-80
2020/12/15 09:35:47;;;;;;;16.13;14.43;;;11.50;99.90;;;;;;5108580;28;20194;-81
2020/12/15 09:38:14;;;;;;;18.33;14.90;;;11.50;99.90;;;;;;5109105;28;20242;-80
2020/12/15 09:40:40;;;;;;;21.27;15.97;;;11.60;99.90;;;;;;5110027;28;20216;-81
2020/12/15 09:43:05;;;;;;;18.43;15.00;;;11.50;99.90;;;;;;5108604;28;20181;-80
2020/12/15 09:45:31;;;;;;;20.10;15.00;;;11.40;99.90;;;;;;5107690;28;20246;-81
2020/12/15 09:48:01;;;;;;;16.23;14.03;;;11.30;99.90;;;;;;5110718;28;20190;-81
2020/12/15 09:50:27;;;;;;;17.37;13.90;;;11.30;99.90;;;;;;5107806;28;20181;-80
2020/12/15 09:52:52;;;;;;;17.10;15.27;;;11.50;99.90;;;;;;5112425;28;20193;-81
2020/12/15 09:55:18;;;;;;;16.40;14.33;;;11.50;99.90;;;;;;5105566;28;20264;-81
2020/12/15 09:57:44;;;;;;;22.40;16.07;;;11.50;99.90;;;;;;5112974;28;20727;-81
2020/12/15 10:00:09;;;;;;;18.77;15.27;;;11.70;99.90;;;;;;5113679;28;20286;-81
2020/12/15 10:02:35;;;;;;;17.60;15.13;;;11.70;99.90;;;;;;5112965;28;20532;-81
2020/12/15 10:05:01;;;;;;;16.70;14.90;;;11.50;99.90;;;;;;5095902;28;20178;-81
2020/12/15 10:07:26;;;;;;;18.70;15.40;;;11.30;99.90;;;;;;5114587;28;20177;-81
2020/12/15 10:09:57;;;;;;;18.27;14.93;;;11.30;99.90;;;;;;5114232;28;20189;-81
2020/12/15 10:12:23;;;;;;;18.90;15.77;;;11.40;99.90;;;;;;5103581;28;20596;-81
2020/12/15 10:14:49;;;;;;;17.47;15.50;;;11.30;99.90;;;;;;5093798;28;20184;-81
2020/12/15 10:17:14;;;;;;;17.33;15.63;;;11.30;99.90;;;;;;5091829;28;20568;-81
2020/12/15 10:19:41;;;;;;;18.60;16.10;;;11.30;99.90;;;;;;5087913;28;20226;-81
2020/12/15 10:22:06;;;;;;;19.97;16.07;;;11.50;99.90;;;;;;5093028;28;20254;-81
2020/12/15 10:24:32;;;;;;;18.37;15.00;;;11.30;99.90;;;;;;5091912;28;20293;-81
2020/12/15 10:26:58;;;;;;;17.67;14.80;;;11.30;99.90;;;;;;5109522;28;20186;-81
2020/12/15 10:29:26;;;;;;;19.10;16.23;;;11.30;99.90;;;;;;5104886;28;20623;-80
2020/12/15 10:31:52;;;;;;;21.33;17.47;;;11.30;99.90;;;;;;5095336;28;20192;-81
2020/12/15 10:34:18;;;;;;;18.70;14.93;;;11.30;99.90;;;;;;5095249;28;20198;-80
2020/12/15 10:36:47;;;;;;;19.47;17.13;;;11.50;99.90;;;;;;5112268;28;20189;-81
2020/12/15 10:39:13;;;;;;;18.77;16.57;;;11.50;99.90;;;;;;5111118;28;20196;-81
2020/12/15 10:41:41;;;;;;;18.87;16.80;;;11.40;99.90;;;;;;5110368;28;20601;-80
2020/12/15 10:44:13;;;;;;;19.67;16.80;;;11.30;99.90;;;;;;5094605;28;20174;-81
2020/12/15 10:46:38;;;;;;;21.23;16.93;;;11.50;99.90;;;;;;5112518;28;20303;-81
2020/12/15 10:49:04;;;;;;;20.37;17.67;;;11.50;99.90;;;;;;5110740;28;20181;-81
2020/12/15 10:51:30;;;;;;;19.47;17.37;;;11.60;99.90;;;;;;5112462;28;20706;-80
2020/12/15 10:53:55;;;;;;;19.97;17.87;;;11.60;99.90;;;;;;5113437;28;20184;-81
2020/12/15 10:56:22;;;;;;;21.10;18.33;;;11.70;99.90;;;;;;5108634;28;20232;-81
2020/12/15 10:58:48;;;;;;;19.93;17.93;;;11.30;99.90;;;;;;5103637;28;20561;-81
2020/12/15 11:01:14;;;;;;;21.03;18.93;;;11.30;99.90;;;;;;5086240;28;20718;-82
2020/12/15 11:03:40;;;;;;;20.07;17.97;;;11.40;99.90;;;;;;5112789;28;20273;-81
2020/12/15 11:06:06;;;;;;;22.17;19.37;;;11.30;99.90;;;;;;5112421;28;20256;-82
2020/12/15 11:08:31;;;;;;;21.00;18.90;;;11.50;99.90;;;;;;5111193;28;20188;-81
2020/12/15 11:10:57;;;;;;;21.57;19.27;;;11.50;99.90;;;;;;5113000;28;20178;-81
2020/12/15 11:13:23;;;;;;;26.67;19.87;;;11.40;99.90;;;;;;5112574;28;20181;-82
2020/12/15 11:15:49;;;;;;;21.90;19.00;;;11.30;99.90;;;;;;5113049;28;20272;-81
2020/12/15 11:18:14;;;;;;;21.73;19.23;;;11.50;99.90;;;;;;5111194;28;20193;-82
2020/12/15 11:20:40;;;;;;;22.27;19.70;;;11.60;99.90;;;;;;5094363;28;20201;-82
2020/12/15 11:23:06;;;;;;;23.67;19.23;;;11.70;99.90;;;;;;5111547;28;20177;-82
2020/12/15 11:25:32;;;;;;;21.43;19.10;;;11.60;99.90;;;;;;5111333;28;20189;-82
2020/12/15 11:27:58;;;;;;;19.97;17.93;;;11.70;99.90;;;;;;5111123;28;20197;-82
2020/12/15 11:30:24;;;;;;;21.00;18.90;;;11.70;99.90;;;;;;5111518;28;20677;-81
2020/12/15 11:32:49;;;;;;;20.67;18.20;;;11.90;99.90;;;;;;5091942;28;20179;-82
2020/12/15 11:35:15;;;;;;;22.57;17.47;;;11.80;99.90;;;;;;5096441;28;20185;-82
2020/12/15 11:37:43;;;;;;;22.93;18.73;;;11.80;99.90;;;;;;5111155;28;20190;-82
2020/12/15 11:40:10;;;;;;;22.57;18.83;;;11.90;99.90;;;;;;5116734;28;20212;-82
2020/12/15 11:42:37;;;;;;;20.87;17.27;;;11.80;99.90;;;;;;5115172;28;20185;-82
2020/12/15 11:45:04;;;;;;;21.53;17.60;;;11.80;99.90;;;;;;5116531;28;20177;-82
2020/12/15 11:47:30;;;;;;;19.50;16.97;;;11.80;99.90;;;;;;5115232;28;20231;-82
2020/12/15 11:49:56;;;;;;;20.73;17.43;;;11.70;99.90;;;;;;5098359;28;20182;-82
2020/12/15 11:52:22;;;;;;;18.90;17.00;;;11.70;99.90;;;;;;5115031;28;20276;-81
2020/12/15 11:54:47;;;;;;;18.97;16.93;;;11.80;99.90;;;;;;5116685;28;20264;-82
2020/12/15 11:57:14;;;;;;;19.70;17.60;;;12.10;99.90;;;;;;5115179;28;20225;-82
2020/12/15 11:59:41;;;;;;;19.87;17.27;;;12.20;99.90;;;;;;5108342;28;20281;-82
2020/12/15 12:02:07;;;;;;;19.17;16.57;;;12.20;99.90;;;;;;5103481;28;20190;-82
2020/12/15 12:04:33;;;;;;;18.17;16.47;;;12.20;99.90;;;;;;5104180;28;20186;-82
2020/12/15 12:06:58;;;;;;;17.60;15.90;;;12.40;99.90;;;;;;5114453;28;20201;-82
2020/12/15 12:09:24;;;;;;;18.93;15.63;;;12.40;99.90;;;;;;5101370;28;20193;-81
2020/12/15 12:11:50;;;;;;;17.23;15.30;;;12.60;99.90;;;;;;5113654;28;20178;-82
2020/12/15 12:14:17;;;;;;;18.33;15.20;;;12.50;99.90;;;;;;5093941;28;20182;-81
2020/12/15 12:16:43;;;;;;;15.97;14.30;;;12.50;99.90;;;;;;5113158;28;20181;-81
2020/12/15 12:19:08;;;;;;;17.17;14.90;;;12.30;99.90;;;;;;5114693;28;20782;-81
2020/12/15 12:21:35;;;;;;;15.53;13.93;;;12.30;99.90;;;;;;5096588;28;20202;-82
2020/12/15 12:24:01;;;;;;;15.40;13.77;;;12.40;99.90;;;;;;5114489;28;20196;-81
2020/12/15 12:26:27;;;;;;;14.93;12.87;;;12.30;99.90;;;;;;5115296;27;20547;-82
2020/12/15 12:28:53;;;;;;;14.37;12.33;;;12.40;99.90;;;;;;5115264;28;20661;-81
2020/12/15 12:31:19;;;;;;;16.80;12.40;;;12.40;99.90;;;;;;5114378;28;20190;-81
2020/12/15 12:33:45;;;;;;;13.37;12.00;;;12.60;99.90;;;;;;5113969;28;20185;-82
2020/12/15 12:36:11;;;;;;;13.67;11.80;;;12.70;99.90;;;;;;5097452;28;20250;-82
2020/12/15 12:38:36;;;;;;;15.33;12.67;;;12.90;99.90;;;;;;5112623;28;20231;-81